createdAt,value
2019-05-30T00:00:17.398Z,13.10
2019-05-30T00:02:40.780Z,13.10
2019-05-30T00:05:09.925Z,13.20
2019-05-30T00:07:38.930Z,13.20
2019-05-30T00:10:08.063Z,13.20
2019-05-30T00:12:37.091Z,13.20
2019-05-30T00:15:09.787Z,13.10
2019-05-30T00:17:38.793Z,13.00
2019-05-30T00:20:07.584Z,13.00
2019-05-30T00:22:36.593Z,12.90
2019-05-30T00:25:07.326Z,12.80
2019-05-30T00:27:36.354Z,12.70
2019-05-30T00:30:19.982Z,12.60
2019-05-30T00:32:36.656Z,12.60
2019-05-30T00:35:07.751Z,12.70
2019-05-30T00:37:37.308Z,12.70
2019-05-30T00:40:08.338Z,12.70
2019-05-30T00:42:37.355Z,12.40
2019-05-30T00:45:19.799Z,12.40
2019-05-30T00:47:38.274Z,12.20
2019-05-30T00:50:07.450Z,12.10
2019-05-30T00:52:36.462Z,12.10
2019-05-30T00:55:07.211Z,12.00
2019-05-30T00:57:36.223Z,12.00
2019-05-30T01:00:07.810Z,11.90
2019-05-30T01:02:36.277Z,11.90
2019-05-30T01:05:07.918Z,11.80
2019-05-30T01:07:37.219Z,11.80
2019-05-30T01:10:07.737Z,11.80
2019-05-30T01:12:37.070Z,11.80
2019-05-30T01:15:07.541Z,11.70
2019-05-30T01:17:36.858Z,11.70
2019-05-30T01:20:09.531Z,11.70
2019-05-30T01:22:38.535Z,11.70
2019-05-30T01:25:08.040Z,11.70
2019-05-30T01:27:36.835Z,11.70
2019-05-30T01:30:08.069Z,11.60
2019-05-30T01:32:37.125Z,11.50
2019-05-30T01:35:07.921Z,11.50
2019-05-30T01:37:37.144Z,11.40
2019-05-30T01:40:08.799Z,11.50
2019-05-30T01:42:39.035Z,11.40
2019-05-30T01:45:09.002Z,11.40
2019-05-30T01:47:38.001Z,11.50
2019-05-30T01:50:08.762Z,11.50
2019-05-30T01:52:38.361Z,11.50
2019-05-30T01:55:08.992Z,11.50
2019-05-30T01:57:38.679Z,11.40
2019-05-30T02:00:20.530Z,11.40
2019-05-30T02:02:43.741Z,11.40
2019-05-30T02:05:13.824Z,11.40
2019-05-30T02:07:42.243Z,11.40
2019-05-30T02:10:11.708Z,11.30
2019-05-30T02:12:43.019Z,11.30
2019-05-30T02:15:12.957Z,11.10
2019-05-30T02:17:41.963Z,11.10
2019-05-30T02:20:10.637Z,11.20
2019-05-30T02:22:39.658Z,11.10
2019-05-30T02:25:10.375Z,11.00
2019-05-30T02:27:39.484Z,11.00
2019-05-30T02:30:15.153Z,11.00
2019-05-30T02:32:44.366Z,11.00
2019-05-30T02:35:13.057Z,11.00
2019-05-30T02:37:42.096Z,10.90
2019-05-30T02:40:14.969Z,10.90
2019-05-30T02:42:42.416Z,10.90
2019-05-30T02:45:12.545Z,10.80
2019-05-30T02:47:41.770Z,10.80
2019-05-30T02:50:13.702Z,10.70
2019-05-30T02:52:41.486Z,10.80
2019-05-30T02:55:12.646Z,10.90
2019-05-30T02:57:41.453Z,10.80
2019-05-30T03:00:15.300Z,10.90
2019-05-30T03:02:41.694Z,10.90
2019-05-30T03:05:12.772Z,10.90
2019-05-30T03:07:41.008Z,10.90
2019-05-30T03:10:14.625Z,10.90
2019-05-30T03:12:41.863Z,10.80
2019-05-30T03:15:13.057Z,10.80
2019-05-30T03:17:42.038Z,10.70
2019-05-30T03:20:18.851Z,10.70
2019-05-30T03:22:41.642Z,10.60
2019-05-30T03:25:13.589Z,10.60
2019-05-30T03:27:41.697Z,10.60
2019-05-30T03:30:22.223Z,10.50
2019-05-30T03:33:05.054Z,10.50
2019-05-30T03:35:24.105Z,10.60
2019-05-30T03:37:43.095Z,10.60
2019-05-30T03:40:12.659Z,10.50
2019-05-30T03:42:41.682Z,10.50
2019-05-30T03:45:13.570Z,10.50
2019-05-30T03:47:43.989Z,10.50
2019-05-30T03:50:17.216Z,10.40
2019-05-30T03:52:46.100Z,10.40
2019-05-30T03:55:18.636Z,10.40
2019-05-30T03:58:07.794Z,10.40
2019-05-30T04:00:42.285Z,10.40
2019-05-30T04:03:36.812Z,10.30
2019-05-30T04:06:10.153Z,10.30
2019-05-30T04:08:41.382Z,10.30
2019-05-30T04:11:14.780Z,10.30
2019-05-30T04:13:49.997Z,10.30
2019-05-30T04:16:19.696Z,10.40
2019-05-30T04:18:48.884Z,10.40
2019-05-30T04:21:21.047Z,10.30
2019-05-30T04:23:48.068Z,10.40
2019-05-30T04:26:18.122Z,10.30
2019-05-30T04:28:47.370Z,10.40
2019-05-30T04:31:17.179Z,10.50
2019-05-30T04:33:47.102Z,10.50
2019-05-30T04:36:16.978Z,10.50
2019-05-30T04:38:46.277Z,10.70
2019-05-30T04:41:16.002Z,10.70
2019-05-30T04:43:46.282Z,10.80
2019-05-30T04:46:17.277Z,10.70
2019-05-30T04:48:45.528Z,10.70
2019-05-30T04:51:16.067Z,10.70
2019-05-30T04:53:45.454Z,10.70
2019-05-30T04:56:14.708Z,10.70
2019-05-30T04:58:43.854Z,10.80
2019-05-30T05:01:13.139Z,10.80
2019-05-30T05:03:46.344Z,10.80
2019-05-30T05:06:13.804Z,10.80
2019-05-30T05:08:43.090Z,10.90
2019-05-30T05:11:14.448Z,11.00
2019-05-30T05:13:42.269Z,11.00
2019-05-30T05:16:24.534Z,11.00
2019-05-30T05:18:42.108Z,11.10
2019-05-30T05:21:11.118Z,11.10
2019-05-30T05:23:40.129Z,11.10
2019-05-30T05:26:08.539Z,11.20
2019-05-30T05:28:37.547Z,11.20
2019-05-30T05:31:06.641Z,11.30
2019-05-30T05:33:35.675Z,11.30
2019-05-30T05:36:04.664Z,11.30
2019-05-30T05:38:33.677Z,11.30
2019-05-30T05:41:02.087Z,11.40
2019-05-30T05:43:31.113Z,11.50
2019-05-30T05:46:00.119Z,11.50
2019-05-30T05:48:29.186Z,11.50
2019-05-30T05:50:58.204Z,11.70
2019-05-30T05:53:27.264Z,11.70
2019-05-30T05:55:55.702Z,11.70
2019-05-30T05:58:26.391Z,11.70
2019-05-30T06:00:55.617Z,11.70
2019-05-30T06:03:24.631Z,11.70
2019-05-30T06:05:53.824Z,11.80
2019-05-30T06:08:23.591Z,11.90
2019-05-30T06:10:53.067Z,12.00
2019-05-30T06:13:22.920Z,12.10
2019-05-30T06:15:52.098Z,12.20
2019-05-30T06:18:24.208Z,12.30
2019-05-30T06:20:52.744Z,12.40
2019-05-30T06:23:21.760Z,12.40
2019-05-30T06:25:50.785Z,12.50
2019-05-30T06:28:20.017Z,12.50
2019-05-30T06:30:49.060Z,12.50
2019-05-30T06:33:18.560Z,12.60
2019-05-30T06:35:47.075Z,12.60
2019-05-30T06:38:16.085Z,12.70
2019-05-30T06:40:45.092Z,12.70
2019-05-30T06:43:14.107Z,12.80
2019-05-30T06:45:43.112Z,12.80
2019-05-30T06:48:11.530Z,12.90
2019-05-30T06:50:40.537Z,13.00
2019-05-30T06:53:09.566Z,13.10
2019-05-30T06:55:38.561Z,13.10
2019-05-30T06:58:07.550Z,13.20
2019-05-30T07:00:36.717Z,13.30
2019-05-30T07:03:05.117Z,13.30
2019-05-30T07:05:35.113Z,13.40
2019-05-30T07:08:04.571Z,13.50
2019-05-30T07:10:33.598Z,13.50
2019-05-30T07:13:02.594Z,13.60
2019-05-30T07:15:31.409Z,13.60
2019-05-30T07:18:00.615Z,13.60
2019-05-30T07:20:29.754Z,13.80
2019-05-30T07:22:58.824Z,13.90
2019-05-30T07:25:27.938Z,14.00
2019-05-30T07:27:56.334Z,14.10
2019-05-30T07:30:25.897Z,14.10
2019-05-30T07:32:54.910Z,14.10
2019-05-30T07:35:24.013Z,14.20
2019-05-30T07:37:53.330Z,14.20
2019-05-30T07:40:22.680Z,14.30
2019-05-30T07:42:51.085Z,14.30
2019-05-30T07:45:21.915Z,14.50
2019-05-30T07:47:50.915Z,14.60
2019-05-30T07:50:20.012Z,14.60
2019-05-30T07:52:49.044Z,14.60
2019-05-30T07:55:17.705Z,14.70
2019-05-30T07:57:46.694Z,14.60
2019-05-30T08:00:17.499Z,14.70
2019-05-30T08:02:46.505Z,14.70
2019-05-30T08:05:24.362Z,14.80
2019-05-30T08:07:46.413Z,15.00
2019-05-30T08:10:16.063Z,15.00
2019-05-30T08:12:45.633Z,15.10
2019-05-30T08:15:15.304Z,15.20
2019-05-30T08:17:44.731Z,15.20
2019-05-30T08:20:13.574Z,15.30
2019-05-30T08:22:42.560Z,15.40
2019-05-30T08:25:11.600Z,15.50
2019-05-30T08:27:40.583Z,15.60
2019-05-30T08:30:11.304Z,15.60
2019-05-30T08:32:40.362Z,15.70
2019-05-30T08:35:09.431Z,15.60
2019-05-30T08:37:39.409Z,15.80
2019-05-30T08:40:10.241Z,15.90
2019-05-30T08:42:40.360Z,16.00
2019-05-30T08:45:10.518Z,16.00
2019-05-30T08:47:41.308Z,16.10
2019-05-30T08:50:10.279Z,16.20
2019-05-30T08:52:40.699Z,16.30
2019-05-30T08:55:10.714Z,16.40
2019-05-30T08:57:41.027Z,16.50
2019-05-30T09:00:11.536Z,16.60
2019-05-30T09:02:40.996Z,16.70
2019-05-30T09:05:10.674Z,16.80
2019-05-30T09:07:40.276Z,17.00
2019-05-30T09:10:10.978Z,17.10
2019-05-30T09:12:40.988Z,17.20
2019-05-30T09:15:14.907Z,17.30
2019-05-30T09:17:44.811Z,17.40
2019-05-30T09:20:16.569Z,17.50
2019-05-30T09:22:45.681Z,17.70
2019-05-30T09:25:15.611Z,17.80
2019-05-30T09:27:44.845Z,18.00
2019-05-30T09:30:17.850Z,18.20
2019-05-30T09:32:47.052Z,18.30
2019-05-30T09:35:17.017Z,18.30
2019-05-30T09:37:45.881Z,18.30
2019-05-30T09:40:17.650Z,18.50
2019-05-30T09:42:48.352Z,18.50
2019-05-30T09:45:18.796Z,18.60
2019-05-30T09:47:49.339Z,18.80
2019-05-30T09:50:18.903Z,18.80
2019-05-30T09:52:49.207Z,19.00
2019-05-30T09:55:18.710Z,19.00
2019-05-30T09:57:47.755Z,19.00
2019-05-30T10:00:20.968Z,19.30
2019-05-30T10:02:50.519Z,19.40
2019-05-30T10:05:24.193Z,19.60
2019-05-30T10:07:51.427Z,19.60
2019-05-30T10:10:20.669Z,19.60
2019-05-30T10:12:50.335Z,19.70
2019-05-30T10:15:20.162Z,19.60
2019-05-30T10:17:52.091Z,19.80
2019-05-30T10:20:20.447Z,19.90
2019-05-30T10:22:51.692Z,20.10
2019-05-30T10:25:20.208Z,20.30
2019-05-30T10:27:50.899Z,20.30
2019-05-30T10:30:21.556Z,20.40
2019-05-30T10:32:50.680Z,20.60
2019-05-30T10:35:21.055Z,20.70
2019-05-30T10:37:50.933Z,20.70
2019-05-30T10:40:21.221Z,20.80
2019-05-30T10:42:51.271Z,20.60
2019-05-30T10:45:21.135Z,20.50
2019-05-30T10:47:51.232Z,20.80
2019-05-30T10:50:20.666Z,21.00
2019-05-30T10:52:49.753Z,21.00
2019-05-30T10:55:19.906Z,21.20
2019-05-30T10:57:49.900Z,21.40
2019-05-30T11:00:21.028Z,21.60
2019-05-30T11:02:51.136Z,21.60
2019-05-30T11:05:21.079Z,21.70
2019-05-30T11:08:03.884Z,21.60
2019-05-30T11:10:34.799Z,21.80
2019-05-30T11:13:06.008Z,21.60
2019-05-30T11:15:34.674Z,21.70
2019-05-30T11:18:03.695Z,21.60
2019-05-30T11:20:32.770Z,21.80
2019-05-30T11:23:01.789Z,22.00
2019-05-30T11:25:31.451Z,22.00
2019-05-30T11:27:59.886Z,21.90
2019-05-30T11:30:30.123Z,22.30
2019-05-30T11:32:59.493Z,22.50
2019-05-30T11:35:28.725Z,22.70
2019-05-30T11:37:57.729Z,22.70
2019-05-30T11:40:26.767Z,22.90
2019-05-30T11:42:55.826Z,22.90
2019-05-30T11:45:25.366Z,22.90
2019-05-30T11:47:55.663Z,22.80
2019-05-30T11:50:24.927Z,22.90
2019-05-30T11:52:53.941Z,23.30
2019-05-30T11:55:23.115Z,23.40
2019-05-30T11:57:52.055Z,23.70
2019-05-30T12:00:21.751Z,23.00
2019-05-30T12:02:50.813Z,22.70
2019-05-30T12:05:20.440Z,22.80
2019-05-30T12:07:50.612Z,23.10
2019-05-30T12:10:19.667Z,23.50
2019-05-30T12:12:48.678Z,23.80
2019-05-30T12:15:17.990Z,23.60
2019-05-30T12:17:46.990Z,22.50
2019-05-30T12:20:16.485Z,22.40
2019-05-30T12:22:44.997Z,22.70
2019-05-30T12:25:14.442Z,22.70
2019-05-30T12:27:43.502Z,23.00
2019-05-30T12:30:14.534Z,23.20
2019-05-30T12:32:43.532Z,23.30
2019-05-30T12:35:12.406Z,23.10
2019-05-30T12:37:54.143Z,22.70
2019-05-30T12:40:12.569Z,22.90
2019-05-30T12:42:41.569Z,23.00
2019-05-30T12:45:11.621Z,23.00
2019-05-30T12:47:40.618Z,23.00
2019-05-30T12:50:12.730Z,23.10
2019-05-30T12:52:41.738Z,23.10
2019-05-30T12:55:11.496Z,23.10
2019-05-30T12:57:40.559Z,23.00
2019-05-30T13:00:17.795Z,22.90
2019-05-30T13:02:43.409Z,22.70
2019-05-30T13:05:12.566Z,22.60
2019-05-30T13:07:40.993Z,22.50
2019-05-30T13:10:10.851Z,22.10
2019-05-30T13:12:39.855Z,22.10
2019-05-30T13:15:10.133Z,22.30
2019-05-30T13:17:39.130Z,22.20
2019-05-30T13:20:08.316Z,22.10
2019-05-30T13:22:37.482Z,22.20
2019-05-30T13:25:10.270Z,22.40
2019-05-30T13:27:39.302Z,22.40
2019-05-30T13:30:09.871Z,21.90
2019-05-30T13:32:38.289Z,22.10
2019-05-30T13:35:08.344Z,22.30
2019-05-30T13:37:37.419Z,22.40
2019-05-30T13:40:23.405Z,22.40
2019-05-30T13:42:38.057Z,22.40
2019-05-30T13:45:08.370Z,22.20
2019-05-30T13:47:38.901Z,22.20
2019-05-30T13:50:13.536Z,22.20
2019-05-30T13:52:40.846Z,22.20
2019-05-30T13:55:10.593Z,22.10
2019-05-30T13:57:39.599Z,22.10
2019-05-30T14:00:08.874Z,22.00
2019-05-30T14:02:37.874Z,22.10
2019-05-30T14:05:08.303Z,22.10
2019-05-30T14:07:37.442Z,21.90
2019-05-30T14:10:08.694Z,22.00
2019-05-30T14:12:37.334Z,21.70
2019-05-30T14:15:14.045Z,21.30
2019-05-30T14:17:41.362Z,21.20
2019-05-30T14:20:11.872Z,21.00
2019-05-30T14:22:40.869Z,21.10
2019-05-30T14:25:09.985Z,21.00
2019-05-30T14:27:39.279Z,21.30
2019-05-30T14:30:10.993Z,21.30
2019-05-30T14:32:40.274Z,21.50
2019-05-30T14:35:11.757Z,21.80
2019-05-30T14:37:40.076Z,21.90
2019-05-30T14:40:11.221Z,21.70
2019-05-30T14:42:40.372Z,21.80
2019-05-30T14:45:12.511Z,22.00
2019-05-30T14:47:41.746Z,22.30
2019-05-30T14:50:12.963Z,22.50
2019-05-30T14:52:42.332Z,22.70
2019-05-30T14:55:13.831Z,22.30
2019-05-30T14:57:42.837Z,23.30
2019-05-30T15:00:17.651Z,23.40
2019-05-30T15:02:46.504Z,23.20
2019-05-30T15:05:16.133Z,23.30
2019-05-30T15:07:45.219Z,23.60
2019-05-30T15:10:17.002Z,22.90
2019-05-30T15:12:46.259Z,22.50
2019-05-30T15:15:18.167Z,22.50
2019-05-30T15:17:46.780Z,23.30
2019-05-30T15:20:17.711Z,23.60
2019-05-30T15:22:49.067Z,22.80
2019-05-30T15:25:18.159Z,22.50
2019-05-30T15:27:46.995Z,22.90
2019-05-30T15:30:16.921Z,23.70
2019-05-30T15:32:46.217Z,24.40
2019-05-30T15:35:18.252Z,24.00
2019-05-30T15:37:46.432Z,23.40
2019-05-30T15:40:17.199Z,23.90
2019-05-30T15:42:45.707Z,23.50
2019-05-30T15:45:16.231Z,23.60
2019-05-30T15:47:45.385Z,22.60
2019-05-30T15:50:15.366Z,22.60
2019-05-30T15:52:45.754Z,22.80
2019-05-30T15:55:15.297Z,22.40
2019-05-30T15:57:45.554Z,22.40
2019-05-30T16:00:16.093Z,22.60
2019-05-30T16:02:45.222Z,22.00
2019-05-30T16:05:14.808Z,22.30
2019-05-30T16:07:43.263Z,22.60
2019-05-30T16:10:12.905Z,22.40
2019-05-30T16:12:42.097Z,22.60
2019-05-30T16:15:11.898Z,22.70
2019-05-30T16:17:41.054Z,22.40
2019-05-30T16:20:11.773Z,22.40
2019-05-30T16:22:41.005Z,22.20
2019-05-30T16:25:10.261Z,22.10
2019-05-30T16:27:39.268Z,22.00
2019-05-30T16:30:09.821Z,21.80
2019-05-30T16:32:39.223Z,22.20
2019-05-30T16:35:08.587Z,22.40
2019-05-30T16:37:37.595Z,22.50
2019-05-30T16:40:11.524Z,22.20
2019-05-30T16:42:40.555Z,21.80
2019-05-30T16:45:11.173Z,21.60
2019-05-30T16:47:40.232Z,21.50
2019-05-30T16:50:09.490Z,21.60
2019-05-30T16:52:39.479Z,21.40
2019-05-30T16:55:09.117Z,21.50
2019-05-30T16:57:38.212Z,21.50
2019-05-30T17:00:09.451Z,21.40
2019-05-30T17:02:37.963Z,21.30
2019-05-30T17:05:07.926Z,21.20
2019-05-30T17:07:36.906Z,21.20
2019-05-30T17:10:21.584Z,21.10
2019-05-30T17:12:38.443Z,21.00
2019-05-30T17:15:09.598Z,21.00
2019-05-30T17:17:38.085Z,21.10
2019-05-30T17:20:09.109Z,21.00
2019-05-30T17:22:38.186Z,20.90
2019-05-30T17:25:07.646Z,20.70
2019-05-30T17:27:36.076Z,20.90
2019-05-30T17:30:09.498Z,20.70
2019-05-30T17:32:38.526Z,20.70
2019-05-30T17:35:09.339Z,20.70
2019-05-30T17:37:38.351Z,20.60
2019-05-30T17:40:08.437Z,20.60
2019-05-30T17:42:37.705Z,20.70
2019-05-30T17:45:11.176Z,20.80
2019-05-30T17:47:40.183Z,20.60
2019-05-30T17:50:11.541Z,20.50
2019-05-30T17:52:40.061Z,20.50
2019-05-30T17:55:09.720Z,20.40
2019-05-30T17:57:38.780Z,20.30
2019-05-30T18:00:13.380Z,20.40
2019-05-30T18:02:42.922Z,20.40
2019-05-30T18:05:12.281Z,20.50
2019-05-30T18:07:41.286Z,20.50
2019-05-30T18:10:11.263Z,20.40
2019-05-30T18:12:40.343Z,20.40
2019-05-30T18:15:11.293Z,20.30
2019-05-30T18:17:42.096Z,20.20
2019-05-30T18:20:11.520Z,20.20
2019-05-30T18:22:40.603Z,20.10
2019-05-30T18:25:11.181Z,20.00
2019-05-30T18:27:40.194Z,20.00
2019-05-30T18:30:10.473Z,20.00
2019-05-30T18:32:38.883Z,20.00
2019-05-30T18:35:08.527Z,19.80
2019-05-30T18:37:38.747Z,19.80
2019-05-30T18:40:10.725Z,19.90
2019-05-30T18:42:39.793Z,19.80
2019-05-30T18:45:11.733Z,19.90
2019-05-30T18:47:40.725Z,19.90
2019-05-30T18:50:10.085Z,19.90
2019-05-30T18:52:39.098Z,19.70
2019-05-30T18:55:08.582Z,19.90
2019-05-30T18:57:37.570Z,19.90
2019-05-30T19:00:09.814Z,19.70
2019-05-30T19:02:39.917Z,19.60
2019-05-30T19:05:09.167Z,19.60
2019-05-30T19:07:38.168Z,19.50
2019-05-30T19:10:07.510Z,19.60
2019-05-30T19:12:36.716Z,19.50
2019-05-30T19:15:12.896Z,19.50
2019-05-30T19:17:41.894Z,19.40
2019-05-30T19:20:12.255Z,19.30
2019-05-30T19:22:41.667Z,19.40
2019-05-30T19:25:11.299Z,19.30
2019-05-30T19:27:39.777Z,19.40
2019-05-30T19:30:12.739Z,19.30
2019-05-30T19:32:41.742Z,19.40
2019-05-30T19:35:12.906Z,19.40
2019-05-30T19:37:41.912Z,19.20
2019-05-30T19:40:13.172Z,19.20
2019-05-30T19:42:41.581Z,19.30
2019-05-30T19:45:11.850Z,19.20
2019-05-30T19:47:40.853Z,19.10
2019-05-30T19:50:10.516Z,19.10
2019-05-30T19:52:39.523Z,19.00
2019-05-30T19:55:08.958Z,19.00
2019-05-30T19:57:37.899Z,19.00
2019-05-30T20:00:11.723Z,18.90
2019-05-30T20:02:40.734Z,19.00
2019-05-30T20:05:10.288Z,19.00
2019-05-30T20:07:39.290Z,18.90
2019-05-30T20:10:07.954Z,18.90
2019-05-30T20:12:38.943Z,18.90
2019-05-30T20:15:10.444Z,18.80
2019-05-30T20:17:39.786Z,18.80
2019-05-30T20:20:09.600Z,18.70
2019-05-30T20:22:38.293Z,18.80
2019-05-30T20:25:08.645Z,18.80
2019-05-30T20:27:38.962Z,18.80
2019-05-30T20:30:10.806Z,18.80
2019-05-30T20:32:40.874Z,18.80
2019-05-30T20:35:10.103Z,18.70
2019-05-30T20:37:39.115Z,18.70
2019-05-30T20:40:09.660Z,18.70
2019-05-30T20:42:38.993Z,18.60
2019-05-30T20:45:10.271Z,18.60
2019-05-30T20:47:40.698Z,18.60
2019-05-30T20:50:14.159Z,18.60
2019-05-30T20:52:44.106Z,18.50
2019-05-30T20:55:13.823Z,18.50
2019-05-30T20:57:42.888Z,18.50
2019-05-30T21:00:13.167Z,18.50
2019-05-30T21:02:43.901Z,18.30
2019-05-30T21:05:13.594Z,18.40
2019-05-30T21:07:44.393Z,18.30
2019-05-30T21:10:14.326Z,18.30
2019-05-30T21:12:47.126Z,18.50
2019-05-30T21:15:15.400Z,18.30
2019-05-30T21:17:46.412Z,18.30
2019-05-30T21:20:16.137Z,18.30
2019-05-30T21:22:46.491Z,18.30
2019-05-30T21:25:15.844Z,18.20
2019-05-30T21:27:45.213Z,18.20
2019-05-30T21:30:15.010Z,18.10
2019-05-30T21:32:45.025Z,18.10
2019-05-30T21:35:15.408Z,18.10
2019-05-30T21:37:45.720Z,18.30
2019-05-30T21:40:14.542Z,18.40
2019-05-30T21:42:58.110Z,18.20
2019-05-30T21:45:14.963Z,18.10
2019-05-30T21:47:44.763Z,18.10
2019-05-30T21:50:14.389Z,18.10
2019-05-30T21:52:43.643Z,18.20
2019-05-30T21:55:12.283Z,18.10
2019-05-30T21:57:41.899Z,18.00
2019-05-30T22:00:14.077Z,18.00
2019-05-30T22:02:46.640Z,17.90
2019-05-30T22:05:15.817Z,17.90
2019-05-30T22:07:45.038Z,17.90
2019-05-30T22:10:14.259Z,18.00
2019-05-30T22:12:45.504Z,17.90
2019-05-30T22:15:14.426Z,17.80
2019-05-30T22:17:43.777Z,17.80
2019-05-30T22:20:12.981Z,17.80
2019-05-30T22:22:41.893Z,17.70
2019-05-30T22:25:11.162Z,17.70
2019-05-30T22:27:40.171Z,17.70
2019-05-30T22:30:09.531Z,17.70
2019-05-30T22:32:38.541Z,17.80
2019-05-30T22:35:07.024Z,17.70
2019-05-30T22:37:36.045Z,17.60
2019-05-30T22:40:06.783Z,17.60
2019-05-30T22:42:35.786Z,17.60
2019-05-30T22:45:06.530Z,17.60
2019-05-30T22:47:34.951Z,17.70
2019-05-30T22:50:05.127Z,17.60
2019-05-30T22:52:34.134Z,17.50
2019-05-30T22:55:03.224Z,17.50
2019-05-30T22:57:32.235Z,17.50
2019-05-30T23:00:01.241Z,17.40
2019-05-30T23:02:29.830Z,17.40
2019-05-30T23:04:58.854Z,17.30
2019-05-30T23:07:27.854Z,17.40
2019-05-30T23:09:58.410Z,17.40
2019-05-30T23:12:27.417Z,17.30
2019-05-30T23:14:56.289Z,17.30
2019-05-30T23:17:25.350Z,17.30
2019-05-30T23:19:54.871Z,17.30
2019-05-30T23:22:23.930Z,17.30
2019-05-30T23:24:55.439Z,17.20
2019-05-30T23:27:23.081Z,17.20
2019-05-30T23:29:52.104Z,17.10
2019-05-30T23:32:21.102Z,17.10
2019-05-30T23:34:50.188Z,17.10
2019-05-30T23:37:19.210Z,17.10
2019-05-30T23:39:48.716Z,17.00
2019-05-30T23:42:17.812Z,17.00
2019-05-30T23:44:46.821Z,17.00
2019-05-30T23:47:15.262Z,17.00
2019-05-30T23:49:44.324Z,17.00
2019-05-30T23:52:13.323Z,17.10
2019-05-30T23:54:42.341Z,17.20
2019-05-30T23:57:11.325Z,17.20
2019-05-30T23:59:40.352Z,17.00
